createdAt,value
2018-02-04T00:02:03.065Z,2.5
2018-02-04T00:07:03.425Z,2.4
2018-02-04T00:12:02.773Z,2.4
2018-02-04T00:17:03.094Z,2.4
2018-02-04T00:22:03.202Z,2.3
2018-02-04T00:27:03.234Z,2.2
2018-02-04T00:32:03.342Z,2.2
2018-02-04T00:37:03.313Z,2.2
2018-02-04T00:42:03.324Z,2.2
2018-02-04T00:47:03.516Z,2.1
2018-02-04T00:52:02.639Z,2.1
2018-02-04T00:57:02.802Z,2.0
2018-02-04T01:02:02.835Z,1.9
2018-02-04T01:07:03.442Z,1.9
2018-02-04T01:12:03.592Z,1.9
2018-02-04T01:17:03.739Z,2.0
2018-02-04T01:22:03.707Z,2.1
2018-02-04T01:27:02.793Z,2.2
2018-02-04T01:32:02.914Z,2.3
2018-02-04T01:37:02.684Z,2.3
2018-02-04T01:42:02.796Z,2.4
2018-02-04T01:47:02.947Z,2.5
2018-02-04T01:52:03.148Z,2.5
2018-02-04T01:57:03.226Z,2.6
2018-02-04T02:02:03.284Z,2.4
2018-02-04T02:07:03.080Z,2.4
2018-02-04T02:12:03.418Z,2.4
2018-02-04T02:17:03.484Z,2.4
2018-02-04T02:22:03.530Z,2.4
2018-02-04T02:27:03.479Z,2.4
2018-02-04T02:32:03.661Z,2.5
2018-02-04T02:37:02.946Z,2.6
2018-02-04T02:42:03.079Z,2.6
2018-02-04T02:47:03.207Z,2.7
2018-02-04T02:52:03.041Z,2.6
2018-02-04T02:57:03.111Z,2.7
2018-02-04T03:02:03.218Z,2.6
2018-02-04T03:07:03.322Z,2.5
2018-02-04T03:12:03.480Z,2.5
2018-02-04T03:17:03.693Z,2.4
2018-02-04T03:22:03.255Z,2.3
2018-02-04T03:27:03.381Z,2.3
2018-02-04T03:32:03.418Z,2.3
2018-02-04T03:37:03.480Z,2.3
2018-02-04T03:42:03.581Z,2.1
2018-02-04T03:47:02.774Z,2.1
2018-02-04T03:52:02.915Z,2.0
2018-02-04T03:57:03.036Z,1.9
2018-02-04T04:02:03.037Z,2.0
2018-02-04T04:07:03.214Z,2.0
2018-02-04T04:12:03.527Z,2.1
2018-02-04T04:17:03.598Z,2.2
2018-02-04T04:22:02.780Z,2.2
2018-02-04T04:27:02.955Z,2.2
2018-02-04T04:32:03.147Z,2.3
2018-02-04T04:37:02.904Z,2.3
2018-02-04T04:42:02.992Z,2.4
2018-02-04T04:47:03.111Z,2.5
2018-02-04T04:52:03.156Z,2.5
2018-02-04T04:57:03.278Z,2.4
2018-02-04T05:02:03.475Z,2.0
2018-02-04T05:07:03.571Z,2.0
2018-02-04T05:12:02.950Z,1.9
2018-02-04T05:17:03.251Z,1.7
2018-02-04T05:22:03.240Z,1.7
2018-02-04T05:27:03.284Z,1.6
2018-02-04T05:32:03.466Z,1.7
2018-02-04T05:37:03.509Z,1.6
2018-02-04T05:42:03.459Z,1.5
2018-02-04T05:47:04.773Z,1.5
2018-02-04T05:52:02.649Z,1.7
2018-02-04T05:57:02.760Z,1.7
2018-02-04T06:02:03.324Z,1.9
2018-02-04T06:07:03.054Z,1.9
2018-02-04T06:12:03.371Z,2.0
2018-02-04T06:17:12.583Z,1.9
2018-02-04T06:22:02.750Z,1.8
2018-02-04T06:27:03.094Z,1.6
2018-02-04T06:32:17.974Z,1.6
2018-02-04T06:37:03.531Z,1.5
2018-02-04T06:42:03.301Z,1.5
2018-02-04T06:47:13.191Z,1.4
2018-02-04T06:52:03.096Z,1.3
2018-02-04T06:57:03.374Z,1.4
2018-02-04T07:02:13.891Z,1.2
2018-02-04T07:07:02.883Z,1.1
2018-02-04T07:12:03.337Z,1.1
2018-02-04T07:17:13.574Z,1.2
2018-02-04T07:22:02.843Z,1.1
2018-02-04T07:27:02.864Z,1.2
2018-02-04T07:32:13.277Z,1.3
2018-02-04T07:37:03.181Z,1.5
2018-02-04T07:42:03.277Z,1.7
2018-02-04T07:47:13.723Z,2.0
2018-02-04T07:52:02.621Z,2.0
2018-02-04T07:57:02.793Z,2.1
2018-02-04T08:02:13.257Z,2.4
2018-02-04T08:07:03.362Z,2.8
2018-02-04T08:12:03.640Z,3.2
2018-02-04T08:17:13.377Z,4.3
2018-02-04T08:22:02.966Z,5.0
2018-02-04T08:27:03.166Z,5.0
2018-02-04T08:32:13.960Z,5.5
2018-02-04T08:37:03.507Z,5.6
2018-02-04T08:42:03.517Z,5.6
2018-02-04T08:47:11.992Z,5.2
2018-02-04T08:52:03.004Z,5.2
2018-02-04T08:57:03.184Z,5.1
2018-02-04T09:02:06.650Z,5.0
2018-02-04T09:07:02.891Z,4.8
2018-02-04T09:12:03.044Z,4.8
2018-02-04T09:17:13.422Z,4.9
2018-02-04T09:22:03.550Z,4.9
2018-02-04T09:27:03.696Z,5.1
2018-02-04T09:32:09.959Z,5.9
2018-02-04T09:37:03.059Z,5.9
2018-02-04T09:42:03.260Z,6.3
2018-02-04T09:47:21.835Z,6.4
2018-02-04T09:52:03.634Z,6.2
2018-02-04T09:57:02.696Z,5.9
2018-02-04T10:02:10.234Z,5.8
2018-02-04T10:07:03.350Z,6.4
2018-02-04T10:12:03.290Z,6.4
2018-02-04T10:17:13.592Z,7.0
2018-02-04T10:22:02.714Z,7.0
2018-02-04T10:27:02.912Z,7.3
2018-02-04T10:32:10.237Z,7.4
2018-02-04T10:37:03.364Z,7.6
2018-02-04T10:42:03.518Z,7.7
2018-02-04T10:47:23.015Z,7.9
2018-02-04T10:52:02.826Z,8.0
2018-02-04T10:57:03.082Z,8.2
2018-02-04T11:02:10.162Z,8.6
2018-02-04T11:07:03.368Z,9.0
2018-02-04T11:12:03.592Z,9.2
2018-02-04T11:17:10.690Z,9.4
2018-02-04T11:22:02.921Z,9.3
2018-02-04T11:27:03.081Z,9.2
2018-02-04T11:32:12.701Z,8.7
2018-02-04T11:37:03.429Z,8.4
2018-02-04T11:42:03.445Z,8.2
2018-02-04T11:47:12.895Z,8.2
2018-02-04T11:52:02.758Z,8.2
2018-02-04T11:57:02.940Z,8.9
2018-02-04T12:02:23.300Z,9.1
2018-02-04T12:07:03.440Z,9.4
2018-02-04T12:12:02.644Z,9.4
2018-02-04T12:17:13.425Z,9.8
2018-02-04T12:22:03.158Z,9.9
2018-02-04T12:27:03.215Z,9.9
2018-02-04T12:32:13.919Z,9.8
2018-02-04T12:37:03.558Z,9.6
2018-02-04T12:42:03.094Z,9.9
2018-02-04T12:47:13.822Z,10.1
2018-02-04T12:52:03.505Z,10.0
2018-02-04T12:57:02.630Z,10.2
2018-02-04T13:02:22.621Z,10.2
2018-02-04T13:07:03.216Z,10.3
2018-02-04T13:12:03.471Z,9.7
2018-02-04T13:17:13.976Z,9.6
2018-02-04T13:22:02.770Z,8.9
2018-02-04T13:27:03.022Z,8.2
2018-02-04T13:32:13.489Z,7.1
2018-02-04T13:37:03.306Z,6.4
2018-02-04T13:42:03.459Z,5.9
2018-02-04T13:47:13.984Z,5.0
2018-02-04T13:52:02.767Z,4.9
2018-02-04T13:57:02.944Z,4.5
2018-02-04T14:02:17.628Z,4.0
2018-02-04T14:07:03.447Z,3.7
2018-02-04T14:12:03.714Z,3.7
2018-02-04T14:17:13.195Z,3.6
2018-02-04T14:22:03.057Z,3.7
2018-02-04T14:27:03.240Z,3.8
2018-02-04T14:32:13.705Z,3.9
2018-02-04T14:37:03.507Z,4.1
2018-02-04T14:42:03.657Z,3.8
2018-02-04T14:47:13.206Z,3.7
2018-02-04T14:52:03.151Z,3.6
2018-02-04T14:57:03.356Z,3.6
2018-02-04T15:02:13.694Z,3.5
2018-02-04T15:07:03.383Z,3.5
2018-02-04T15:12:03.576Z,3.4
2018-02-04T15:17:14.090Z,3.0
2018-02-04T15:22:02.758Z,3.0
2018-02-04T15:27:03.010Z,3.0
2018-02-04T15:32:13.608Z,3.2
2018-02-04T15:37:02.984Z,3.2
2018-02-04T15:42:03.136Z,3.3
2018-02-04T15:47:13.610Z,3.4
2018-02-04T15:52:03.550Z,3.3
2018-02-04T15:57:02.784Z,3.2
2018-02-04T16:02:13.300Z,3.1
2018-02-04T16:07:02.904Z,3.1
2018-02-04T16:12:03.368Z,2.9
2018-02-04T16:17:17.974Z,2.8
2018-02-04T16:22:02.743Z,2.7
2018-02-04T16:27:03.272Z,2.5
2018-02-04T16:32:13.298Z,2.4
2018-02-04T16:37:03.410Z,2.4
2018-02-04T16:42:02.753Z,2.2
2018-02-04T16:47:13.301Z,2.1
2018-02-04T16:52:03.401Z,2.0
2018-02-04T16:57:03.619Z,2.0
2018-02-04T17:02:09.747Z,1.7
2018-02-04T17:07:03.247Z,1.5
2018-02-04T17:12:03.509Z,1.5
2018-02-04T17:17:03.718Z,1.4
2018-02-04T17:22:02.957Z,1.3
2018-02-04T17:27:03.187Z,1.2
2018-02-04T17:32:03.305Z,1.2
2018-02-04T17:37:03.352Z,1.1
2018-02-04T17:42:03.326Z,1.3
2018-02-04T17:47:04.002Z,1.3
2018-02-04T17:52:02.637Z,1.4
2018-02-04T18:02:03.322Z,1.5
2018-02-04T18:07:03.228Z,1.3
2018-02-04T18:12:03.529Z,1.2
2018-02-04T18:17:04.065Z,1.2
2018-02-04T18:22:02.985Z,1.2
2018-02-04T18:27:03.268Z,1.2
2018-02-04T18:32:04.125Z,1.1
2018-02-04T18:37:03.455Z,1.2
2018-02-04T18:42:03.462Z,1.2
2018-02-04T18:47:03.698Z,1.1
2018-02-04T18:52:02.949Z,1.2
2018-02-04T18:57:02.991Z,1.2
2018-02-04T19:02:03.798Z,1.3
2018-02-04T19:07:03.446Z,1.3
2018-02-04T19:12:03.589Z,1.2
2018-02-04T19:17:04.448Z,1.1
2018-02-04T19:22:02.989Z,1.1
2018-02-04T19:27:03.189Z,1.2
2018-02-04T19:32:03.715Z,1.1
2018-02-04T19:37:03.419Z,1.1
2018-02-04T19:42:03.369Z,1.2
2018-02-04T19:47:04.288Z,1.3
2018-02-04T19:52:03.575Z,1.4
2018-02-04T19:57:02.887Z,1.6
2018-02-04T20:02:03.318Z,1.7
2018-02-04T20:07:03.030Z,1.6
2018-02-04T20:12:03.391Z,1.5
2018-02-04T20:17:03.891Z,1.5
2018-02-04T20:22:03.567Z,1.5
2018-02-04T20:27:03.675Z,1.6
2018-02-04T20:32:07.762Z,1.6
2018-02-04T20:37:03.051Z,1.6
2018-02-04T20:42:03.157Z,1.6
2018-02-04T20:47:03.304Z,1.5
2018-02-04T20:52:03.371Z,1.5
2018-02-04T20:57:03.410Z,1.5
2018-02-04T21:02:03.921Z,1.5
2018-02-04T21:07:03.082Z,1.5
2018-02-04T21:12:03.164Z,1.5
2018-02-04T21:17:03.296Z,1.4
2018-02-04T21:22:03.525Z,1.4
2018-02-04T21:27:03.651Z,1.4
2018-02-04T21:32:03.644Z,1.6
2018-02-04T21:37:02.964Z,1.6
2018-02-04T21:42:03.164Z,1.5
2018-02-04T21:47:03.405Z,1.5
2018-02-04T21:52:03.192Z,1.4
2018-02-04T21:57:03.335Z,1.4
2018-02-04T22:02:03.675Z,1.4
2018-02-04T22:07:02.867Z,1.5
2018-02-04T22:12:03.125Z,1.4
2018-02-04T22:17:04.600Z,1.3
2018-02-04T22:22:03.337Z,1.4
2018-02-04T22:27:03.425Z,1.4
2018-02-04T22:32:03.575Z,1.4
2018-02-04T22:37:03.669Z,1.4
2018-02-04T22:42:03.642Z,1.3
2018-02-04T22:47:02.856Z,1.4
2018-02-04T22:52:03.001Z,1.4
2018-02-04T22:57:02.986Z,1.4
2018-02-04T23:02:03.288Z,1.4
2018-02-04T23:07:03.566Z,1.4
2018-02-04T23:12:02.823Z,1.3
2018-02-04T23:22:03.783Z,1.4
2018-02-04T23:27:03.434Z,1.6
2018-02-04T23:32:03.606Z,1.6
2018-02-04T23:37:02.728Z,1.5
2018-02-04T23:42:02.833Z,1.5
2018-02-04T23:47:02.932Z,1.5
2018-02-04T23:52:03.062Z,1.5
2018-02-04T23:57:03.146Z,1.5
